createdAt,value
2018-12-16T00:03:22.550Z,34.43
2018-12-16T00:08:28.321Z,39.50
2018-12-16T00:13:31.970Z,33.50
2018-12-16T00:18:35.538Z,38.87
2018-12-16T00:23:39.018Z,33.37
2018-12-16T00:28:42.687Z,35.73
2018-12-16T00:33:46.228Z,34.53
2018-12-16T00:38:49.898Z,33.13
2018-12-16T00:43:53.427Z,35.33
2018-12-16T00:48:56.935Z,35.93
2018-12-16T00:54:00.509Z,38.17
2018-12-16T00:59:03.947Z,35.83
2018-12-16T01:04:08.039Z,39.07
2018-12-16T01:09:11.691Z,36.93
2018-12-16T01:14:16.253Z,35.27
2018-12-16T01:19:19.896Z,38.97
2018-12-16T01:24:23.401Z,39.00
2018-12-16T01:29:26.937Z,37.67
2018-12-16T01:34:30.407Z,40.17
2018-12-16T01:39:33.955Z,41.43
2018-12-16T01:44:37.555Z,45.13
2018-12-16T01:49:41.107Z,41.93
2018-12-16T01:54:44.731Z,41.23
2018-12-16T01:59:48.376Z,42.03
2018-12-16T02:04:51.856Z,41.40
2018-12-16T02:09:55.407Z,44.90
2018-12-16T02:14:59.179Z,47.37
2018-12-16T02:20:03.278Z,44.50
2018-12-16T02:25:07.767Z,44.30
2018-12-16T02:35:31.791Z,44.87
2018-12-16T02:40:36.007Z,44.00
2018-12-16T02:45:39.763Z,43.73
2018-12-16T02:50:43.306Z,46.60
2018-12-16T02:55:46.883Z,43.00
2018-12-16T03:00:50.434Z,44.37
2018-12-16T03:05:53.864Z,48.43
2018-12-16T03:10:57.470Z,47.97
2018-12-16T03:16:01.080Z,50.57
2018-12-16T03:21:04.818Z,50.63
2018-12-16T03:26:08.302Z,49.47
2018-12-16T03:31:11.921Z,50.83
2018-12-16T03:36:15.438Z,51.60
2018-12-16T03:41:18.994Z,50.37
2018-12-16T03:46:22.574Z,48.67
2018-12-16T03:51:26.225Z,51.70
2018-12-16T03:56:29.680Z,52.80
2018-12-16T04:01:33.115Z,53.33
2018-12-16T04:06:37.083Z,53.90
2018-12-16T04:11:40.657Z,51.93
2018-12-16T04:16:44.125Z,52.63
2018-12-16T04:21:47.577Z,53.67
2018-12-16T04:26:51.075Z,52.60
2018-12-16T04:31:55.875Z,49.00
2018-12-16T04:36:59.437Z,52.87
2018-12-16T04:42:03.236Z,49.80
2018-12-16T04:47:07.975Z,47.33
2018-12-16T04:52:11.429Z,46.07
2018-12-16T04:57:14.867Z,48.53
2018-12-16T05:02:18.401Z,44.47
2018-12-16T05:07:22.033Z,48.67
2018-12-16T05:12:26.047Z,44.50
2018-12-16T05:17:29.423Z,52.77
2018-12-16T05:22:32.868Z,51.03
2018-12-16T05:27:36.291Z,50.63
2018-12-16T05:32:40.223Z,47.33
2018-12-16T05:37:43.923Z,49.63
2018-12-16T05:42:47.349Z,50.87
2018-12-16T05:47:50.827Z,52.70
2018-12-16T05:52:54.339Z,49.57
2018-12-16T05:57:57.805Z,48.97
2018-12-16T06:03:02.502Z,47.50
2018-12-16T06:08:05.920Z,49.60
2018-12-16T06:13:09.579Z,49.87
2018-12-16T06:18:13.213Z,49.73
2018-12-16T06:23:16.898Z,46.57
2018-12-16T06:28:20.392Z,46.70
2018-12-16T06:33:24.977Z,46.00
2018-12-16T06:38:28.537Z,49.80
2018-12-16T06:43:32.126Z,49.43
2018-12-16T06:48:35.873Z,46.27
2018-12-16T06:53:39.571Z,53.47
2018-12-16T06:58:43.006Z,50.03
2018-12-16T07:03:46.524Z,51.43
2018-12-16T07:08:50.043Z,52.73
2018-12-16T07:13:53.612Z,51.03
2018-12-16T07:18:57.109Z,55.90
2018-12-16T07:24:00.998Z,59.33
2018-12-16T07:29:04.705Z,56.30
2018-12-16T07:34:08.181Z,52.07
2018-12-16T07:39:18.780Z,54.70
2018-12-16T07:44:22.427Z,55.77
2018-12-16T07:49:26.071Z,54.37
2018-12-16T07:54:29.675Z,54.27
2018-12-16T07:59:33.310Z,57.40
2018-12-16T08:04:36.802Z,55.37
2018-12-16T08:09:40.236Z,55.27
2018-12-16T08:14:43.773Z,61.33
2018-12-16T08:19:47.403Z,61.33
2018-12-16T08:24:55.065Z,58.63
2018-12-16T08:29:58.635Z,59.53
2018-12-16T08:35:02.084Z,56.80
2018-12-16T08:40:07.752Z,58.27
2018-12-16T08:45:11.316Z,56.63
2018-12-16T08:50:16.565Z,59.00
2018-12-16T08:55:20.270Z,56.60
2018-12-16T09:00:23.838Z,51.53
2018-12-16T09:05:27.528Z,50.70
2018-12-16T09:10:34.093Z,48.10
2018-12-16T09:15:36.690Z,44.20
2018-12-16T09:20:40.379Z,46.70
2018-12-16T09:25:43.953Z,45.63
2018-12-16T09:30:47.801Z,43.67
2018-12-16T09:35:51.547Z,48.10
2018-12-16T09:40:55.497Z,43.23
2018-12-16T09:45:59.188Z,41.40
2018-12-16T09:51:02.828Z,39.50
2018-12-16T09:56:06.360Z,39.10
2018-12-16T10:01:09.925Z,41.40
2018-12-16T10:06:13.418Z,39.90
2018-12-16T10:11:17.219Z,39.63
2018-12-16T10:16:20.679Z,40.40
2018-12-16T10:21:24.203Z,41.50
2018-12-16T10:26:27.719Z,36.93
2018-12-16T10:31:32.155Z,38.83
2018-12-16T10:36:35.959Z,44.23
2018-12-16T10:41:39.459Z,40.63
2018-12-16T10:46:43.463Z,40.17
2018-12-16T10:51:46.985Z,43.93
2018-12-16T10:56:50.406Z,40.60
2018-12-16T11:01:53.929Z,41.90
2018-12-16T11:06:57.494Z,40.30
2018-12-16T11:12:01.025Z,40.20
2018-12-16T11:17:04.545Z,38.10
2018-12-16T11:22:08.080Z,39.87
2018-12-16T11:27:11.767Z,40.03
2018-12-16T11:32:15.221Z,38.47
2018-12-16T11:37:18.943Z,40.30
2018-12-16T11:42:22.529Z,39.37
2018-12-16T11:47:25.975Z,38.80
2018-12-16T11:52:29.524Z,37.00
2018-12-16T11:57:33.004Z,39.83
2018-12-16T12:02:36.445Z,37.10
2018-12-16T12:07:42.081Z,39.97
2018-12-16T12:12:45.804Z,39.13
2018-12-16T12:17:49.676Z,37.00
2018-12-16T12:22:53.578Z,36.83
2018-12-16T12:27:57.295Z,39.70
2018-12-16T12:33:00.765Z,36.77
2018-12-16T12:38:04.361Z,41.83
2018-12-16T12:43:07.917Z,38.43
2018-12-16T12:48:11.680Z,42.60
2018-12-16T12:53:15.248Z,38.63
2018-12-16T12:58:18.768Z,39.30
2018-12-16T13:03:22.434Z,38.13
2018-12-16T13:08:25.850Z,41.23
2018-12-16T13:13:29.370Z,42.60
2018-12-16T13:18:33.168Z,37.53
2018-12-16T13:23:36.688Z,42.53
2018-12-16T13:28:41.279Z,38.73
2018-12-16T13:33:44.742Z,42.10
2018-12-16T13:38:48.623Z,46.53
2018-12-16T13:43:52.218Z,42.90
2018-12-16T13:48:56.112Z,46.40
2018-12-16T13:53:59.569Z,43.43
2018-12-16T13:59:03.054Z,43.53
2018-12-16T14:04:06.559Z,44.40
2018-12-16T14:09:10.248Z,46.03
2018-12-16T14:14:13.914Z,43.20
2018-12-16T14:19:17.542Z,44.60
2018-12-16T14:24:21.421Z,42.13
2018-12-16T14:29:25.183Z,47.23
2018-12-16T14:34:28.930Z,46.90
2018-12-16T14:39:32.431Z,49.43
2018-12-16T14:44:36.018Z,48.93
2018-12-16T14:49:39.721Z,50.53
2018-12-16T14:54:43.254Z,51.33
2018-12-16T14:59:46.923Z,56.37
2018-12-16T15:04:50.703Z,49.43
2018-12-16T15:09:54.172Z,51.90
2018-12-16T15:14:57.820Z,53.40
2018-12-16T15:20:01.372Z,47.30
2018-12-16T15:25:05.915Z,54.00
2018-12-16T15:30:10.608Z,55.20
2018-12-16T15:35:14.225Z,49.90
2018-12-16T15:40:17.789Z,54.47
2018-12-16T15:45:21.396Z,46.60
2018-12-16T15:50:24.829Z,53.27
2018-12-16T15:55:28.340Z,53.37
2018-12-16T16:00:32.267Z,47.90
2018-12-16T16:05:35.797Z,48.80
2018-12-16T16:10:39.789Z,50.47
2018-12-16T16:15:43.246Z,46.10
2018-12-16T16:20:46.768Z,50.07
2018-12-16T16:25:50.494Z,45.13
2018-12-16T16:30:54.417Z,53.70
2018-12-16T16:35:58.222Z,47.30
2018-12-16T16:41:02.149Z,50.73
2018-12-16T16:46:06.767Z,52.23
2018-12-16T16:51:10.271Z,47.50
2018-12-16T17:01:27.027Z,49.20
2018-12-16T17:06:30.759Z,50.03
2018-12-16T17:11:34.874Z,48.87
2018-12-16T17:16:38.367Z,49.93
2018-12-16T17:21:42.214Z,48.73
2018-12-16T17:26:45.922Z,49.27
2018-12-16T17:31:49.629Z,56.47
2018-12-16T17:36:54.599Z,54.87
2018-12-16T17:41:58.073Z,48.57
2018-12-16T17:47:01.966Z,51.97
2018-12-16T17:52:05.514Z,51.23
2018-12-16T17:57:09.047Z,55.57
2018-12-16T18:02:12.728Z,55.03
2018-12-16T18:07:16.342Z,55.13
2018-12-16T18:12:19.800Z,53.37
2018-12-16T18:17:23.247Z,55.20
2018-12-16T18:22:26.811Z,51.33
2018-12-16T18:27:31.301Z,53.43
2018-12-16T18:32:34.855Z,54.67
2018-12-16T18:37:38.679Z,54.43
2018-12-16T18:42:42.260Z,58.10
2018-12-16T18:47:45.744Z,61.77
2018-12-16T18:52:49.312Z,59.17
2018-12-16T18:57:53.002Z,59.20
2018-12-16T19:02:56.510Z,60.43
2018-12-16T19:08:00.011Z,59.93
2018-12-16T19:13:03.487Z,60.17
2018-12-16T19:18:07.151Z,59.53
2018-12-16T19:23:10.643Z,55.03
2018-12-16T19:28:14.125Z,56.80
2018-12-16T19:33:17.542Z,59.73
2018-12-16T19:38:21.016Z,61.60
2018-12-16T19:43:24.714Z,59.07
2018-12-16T19:48:28.163Z,58.77
2018-12-16T19:53:31.638Z,61.83
2018-12-16T19:58:35.529Z,57.90
2018-12-16T20:03:43.555Z,64.03
2018-12-16T20:08:47.015Z,61.67
2018-12-16T20:13:50.438Z,62.63
2018-12-16T20:18:53.843Z,66.53
2018-12-16T20:23:57.435Z,67.50
2018-12-16T20:29:00.951Z,65.13
2018-12-16T20:34:04.482Z,64.23
2018-12-16T20:39:08.184Z,70.77
2018-12-16T20:44:11.665Z,65.10
2018-12-16T20:49:15.195Z,69.20
2018-12-16T20:54:18.689Z,66.30
2018-12-16T20:59:22.171Z,66.43
2018-12-16T21:04:25.682Z,72.50
2018-12-16T21:09:29.283Z,68.60
2018-12-16T21:14:38.641Z,72.00
2018-12-16T21:19:42.390Z,73.47
2018-12-16T21:24:47.111Z,68.20
2018-12-16T21:29:50.550Z,67.03
2018-12-16T21:34:53.959Z,67.40
2018-12-16T21:39:57.542Z,65.97
2018-12-16T21:45:01.087Z,65.67
2018-12-16T21:50:06.879Z,62.70
2018-12-16T21:55:10.518Z,62.53
2018-12-16T22:00:14.040Z,60.23
2018-12-16T22:05:20.671Z,63.10
2018-12-16T22:10:24.104Z,62.77
2018-12-16T22:15:27.552Z,60.47
2018-12-16T22:20:31.504Z,65.53
2018-12-16T22:25:35.188Z,67.30
2018-12-16T22:30:38.823Z,62.17
2018-12-16T22:35:42.284Z,67.33
2018-12-16T22:40:46.048Z,67.17
2018-12-16T22:45:49.493Z,63.90
2018-12-16T22:50:53.113Z,64.87
2018-12-16T22:55:56.583Z,65.60
2018-12-16T23:01:05.723Z,64.03
2018-12-16T23:06:09.224Z,70.25
2018-12-16T23:11:12.817Z,60.50
2018-12-16T23:16:18.221Z,64.60
2018-12-16T23:21:21.822Z,64.50
2018-12-16T23:26:25.360Z,60.90
2018-12-16T23:31:28.899Z,59.53
2018-12-16T23:36:32.407Z,57.90
2018-12-16T23:41:35.947Z,56.53
2018-12-16T23:46:39.435Z,60.20
2018-12-16T23:51:42.878Z,65.03
2018-12-16T23:56:46.399Z,58.37
